createdAt,value
2023-03-17T00:01:43.859Z,84.63
2023-03-17T00:04:13.094Z,82.58
2023-03-17T00:06:40.668Z,83.45
2023-03-17T00:09:14.207Z,84.32
2023-03-17T00:11:40.900Z,83.27
2023-03-17T00:14:07.260Z,83.88
2023-03-17T00:16:39.087Z,84.73
2023-03-17T00:19:05.500Z,84.40
2023-03-17T00:21:33.484Z,84.00
2023-03-17T00:24:00.595Z,84.01
2023-03-17T00:26:27.782Z,83.27
2023-03-17T00:28:54.366Z,83.76
2023-03-17T00:31:23.104Z,84.24
2023-03-17T00:33:51.547Z,83.73
2023-03-17T00:36:20.709Z,82.97
2023-03-17T00:38:46.739Z,83.15
2023-03-17T00:41:13.053Z,84.07
2023-03-17T00:43:39.642Z,84.43
2023-03-17T00:46:18.951Z,84.42
2023-03-17T00:48:45.253Z,84.67
2023-03-17T00:51:11.985Z,84.13
2023-03-17T00:53:38.000Z,84.62
2023-03-17T00:56:10.576Z,85.82
2023-03-17T00:58:38.691Z,85.42
2023-03-17T01:01:04.520Z,85.02
2023-03-17T01:03:32.308Z,85.56
2023-03-17T01:05:59.771Z,86.55
2023-03-17T01:08:26.301Z,86.96
2023-03-17T01:10:52.308Z,86.75
2023-03-17T01:13:18.174Z,85.52
2023-03-17T01:15:46.111Z,84.90
2023-03-17T01:18:20.636Z,83.66
2023-03-17T01:20:47.014Z,84.19
2023-03-17T01:23:13.142Z,84.82
2023-03-17T01:25:40.714Z,85.62
2023-03-17T01:28:07.156Z,87.25
2023-03-17T01:30:38.540Z,88.18
2023-03-17T01:33:07.740Z,87.10
2023-03-17T01:35:34.626Z,86.65
2023-03-17T01:38:00.745Z,86.87
2023-03-17T01:40:31.396Z,86.01
2023-03-17T01:43:26.790Z,85.77
2023-03-17T01:46:25.462Z,85.71
2023-03-17T01:49:19.345Z,86.13
2023-03-17T01:52:10.978Z,86.07
2023-03-17T01:54:54.979Z,83.74
2023-03-17T01:57:27.811Z,83.48
2023-03-17T02:00:07.336Z,83.19
2023-03-17T02:02:37.019Z,82.22
2023-03-17T02:05:06.606Z,82.78
2023-03-17T02:07:33.268Z,82.73
2023-03-17T02:09:59.552Z,84.00
2023-03-17T02:12:28.211Z,83.51
2023-03-17T02:14:54.158Z,83.96
2023-03-17T02:17:22.279Z,84.66
2023-03-17T02:19:48.698Z,83.26
2023-03-17T02:22:16.490Z,83.77
2023-03-17T02:24:50.520Z,83.65
2023-03-17T02:27:25.558Z,83.78
2023-03-17T02:29:51.388Z,84.03
2023-03-17T02:32:19.006Z,84.40
2023-03-17T02:34:47.979Z,84.63
2023-03-17T02:37:15.328Z,84.33
2023-03-17T02:39:41.920Z,84.45
2023-03-17T02:42:08.372Z,83.98
2023-03-17T02:44:34.521Z,83.84
2023-03-17T02:47:00.586Z,84.18
2023-03-17T02:49:27.065Z,84.43
2023-03-17T02:51:53.333Z,84.82
2023-03-17T02:54:19.248Z,85.58
2023-03-17T02:56:45.089Z,85.16
2023-03-17T02:59:11.051Z,85.70
2023-03-17T03:01:38.725Z,84.69
2023-03-17T03:04:06.266Z,84.26
2023-03-17T03:06:32.604Z,83.58
2023-03-17T03:08:58.677Z,84.31
2023-03-17T03:11:24.787Z,85.23
2023-03-17T03:13:51.160Z,84.45
2023-03-17T03:16:17.152Z,83.62
2023-03-17T03:18:43.415Z,82.99
2023-03-17T03:21:09.856Z,82.56
2023-03-17T03:23:35.824Z,81.90
2023-03-17T03:26:01.656Z,81.34
2023-03-17T03:28:27.711Z,81.07
2023-03-17T03:30:53.639Z,80.78
2023-03-17T03:33:19.486Z,80.40
2023-03-17T03:35:45.253Z,80.31
2023-03-17T03:38:12.397Z,79.14
2023-03-17T03:40:38.497Z,78.85
2023-03-17T03:43:19.855Z,80.38
2023-03-17T03:45:48.538Z,80.12
2023-03-17T03:48:14.341Z,80.10
2023-03-17T03:50:40.232Z,79.44
2023-03-17T03:53:06.529Z,79.81
2023-03-17T03:55:32.424Z,79.14
2023-03-17T03:57:58.223Z,77.81
2023-03-17T04:00:24.208Z,77.69
2023-03-17T04:02:50.485Z,77.35
2023-03-17T04:05:17.824Z,77.00
2023-03-17T04:07:44.359Z,75.54
2023-03-17T04:10:11.653Z,73.71
2023-03-17T04:12:39.568Z,73.84
2023-03-17T04:15:08.322Z,74.82
2023-03-17T04:17:35.152Z,73.97
2023-03-17T04:20:00.994Z,73.50
2023-03-17T04:22:27.021Z,74.00
2023-03-17T04:24:52.800Z,74.26
2023-03-17T04:27:18.635Z,75.61
2023-03-17T04:29:44.552Z,75.28
2023-03-17T04:32:14.204Z,75.14
2023-03-17T04:34:40.762Z,75.91
2023-03-17T04:37:07.927Z,75.03
2023-03-17T04:39:33.668Z,75.99
2023-03-17T04:41:59.505Z,75.09
2023-03-17T04:44:25.479Z,75.42
2023-03-17T04:46:51.874Z,76.26
2023-03-17T04:49:19.903Z,75.87
2023-03-17T04:51:45.699Z,75.12
2023-03-17T04:54:11.720Z,74.86
2023-03-17T04:56:37.806Z,75.41
2023-03-17T04:59:03.803Z,76.71
2023-03-17T05:01:29.668Z,76.39
2023-03-17T05:03:55.519Z,76.60
2023-03-17T05:06:21.394Z,76.56
2023-03-17T05:08:47.205Z,76.44
2023-03-17T05:11:13.971Z,76.10
2023-03-17T05:13:43.179Z,75.59
2023-03-17T05:16:10.279Z,76.17
2023-03-17T05:18:37.131Z,77.90
2023-03-17T05:21:04.251Z,77.85
2023-03-17T05:23:30.254Z,77.98
2023-03-17T05:25:56.110Z,78.63
2023-03-17T05:28:22.604Z,79.04
2023-03-17T05:30:49.361Z,79.36
2023-03-17T05:33:15.916Z,79.60
2023-03-17T05:35:42.428Z,81.30
2023-03-17T05:38:11.085Z,80.17
2023-03-17T05:40:37.356Z,80.76
2023-03-17T05:43:05.019Z,82.19
2023-03-17T05:45:32.559Z,81.42
2023-03-17T05:47:58.725Z,81.55
2023-03-17T05:50:25.296Z,82.28
2023-03-17T05:52:51.625Z,81.10
2023-03-17T05:55:18.537Z,81.68
2023-03-17T05:57:44.739Z,83.38
2023-03-17T06:00:12.779Z,82.83
2023-03-17T06:02:39.654Z,83.63
2023-03-17T06:05:07.760Z,83.33
2023-03-17T06:07:50.942Z,83.63
2023-03-17T06:10:19.298Z,82.83
2023-03-17T06:12:45.401Z,83.68
2023-03-17T06:15:11.231Z,82.14
2023-03-17T06:17:37.064Z,83.45
2023-03-17T06:20:04.722Z,81.64
2023-03-17T06:22:31.002Z,81.53
2023-03-17T06:24:57.048Z,80.40
2023-03-17T06:27:22.883Z,80.53
2023-03-17T06:29:48.616Z,80.34
2023-03-17T06:32:20.603Z,79.20
2023-03-17T06:34:50.455Z,78.69
2023-03-17T06:37:16.305Z,79.31
2023-03-17T06:39:42.807Z,79.44
2023-03-17T06:42:09.090Z,79.18
2023-03-17T06:44:35.657Z,80.08
2023-03-17T06:47:01.850Z,80.22
2023-03-17T06:49:27.890Z,79.50
2023-03-17T06:51:53.717Z,78.86
2023-03-17T06:54:23.156Z,78.75
2023-03-17T06:56:48.964Z,78.01
2023-03-17T06:59:14.979Z,78.68
2023-03-17T07:01:40.798Z,78.89
2023-03-17T07:04:06.670Z,77.89
2023-03-17T07:06:32.988Z,77.72
2023-03-17T07:09:00.354Z,76.59
2023-03-17T07:11:28.579Z,76.67
2023-03-17T07:13:54.424Z,76.32
2023-03-17T07:16:20.544Z,76.62
2023-03-17T07:18:46.649Z,78.07
2023-03-17T07:21:12.462Z,78.57
2023-03-17T07:23:39.646Z,78.17
2023-03-17T07:26:05.485Z,77.10
2023-03-17T07:28:31.559Z,77.77
2023-03-17T07:30:57.418Z,76.31
2023-03-17T07:33:24.102Z,77.00
2023-03-17T07:35:51.395Z,77.13
2023-03-17T07:38:18.346Z,75.26
2023-03-17T07:40:47.140Z,75.16
2023-03-17T07:43:13.723Z,74.59
2023-03-17T07:45:39.583Z,75.15
2023-03-17T07:48:06.360Z,74.80
2023-03-17T07:50:36.288Z,74.70
2023-03-17T07:53:03.232Z,73.07
2023-03-17T07:55:30.245Z,73.33
2023-03-17T07:57:56.746Z,72.74
2023-03-17T08:00:23.006Z,73.53
2023-03-17T08:03:06.978Z,73.55
2023-03-17T08:05:35.075Z,72.50
2023-03-17T08:08:00.942Z,73.31
2023-03-17T08:10:26.781Z,71.73
2023-03-17T08:12:53.219Z,70.08
2023-03-17T08:15:19.052Z,71.40
2023-03-17T08:17:44.930Z,69.73
2023-03-17T08:20:11.312Z,69.60
2023-03-17T08:22:37.123Z,69.00
2023-03-17T08:25:03.124Z,69.29
2023-03-17T08:27:28.958Z,68.86
2023-03-17T08:29:55.067Z,68.56
2023-03-17T08:32:21.908Z,68.90
2023-03-17T08:34:48.551Z,68.83
2023-03-17T08:37:14.329Z,69.03
2023-03-17T08:39:40.587Z,68.24
2023-03-17T08:42:06.502Z,67.76
2023-03-17T08:44:32.937Z,68.60
2023-03-17T08:46:58.918Z,67.72
2023-03-17T08:49:26.480Z,68.10
2023-03-17T08:51:52.571Z,67.26
2023-03-17T08:54:18.384Z,67.17
2023-03-17T08:56:44.193Z,67.05
2023-03-17T08:59:10.055Z,67.44
2023-03-17T09:01:36.889Z,66.16
2023-03-17T09:04:02.796Z,66.29
2023-03-17T09:06:28.653Z,65.90
2023-03-17T09:08:54.651Z,65.32
2023-03-17T09:11:24.017Z,65.20
2023-03-17T09:13:50.003Z,64.88
2023-03-17T09:16:17.300Z,65.00
2023-03-17T09:18:44.327Z,64.57
2023-03-17T09:21:12.088Z,64.44
2023-03-17T09:23:41.102Z,63.10
2023-03-17T09:26:08.159Z,64.17
2023-03-17T09:28:33.947Z,65.41
2023-03-17T09:31:01.641Z,62.74
2023-03-17T09:33:28.452Z,60.38
2023-03-17T09:35:56.345Z,62.09
2023-03-17T09:38:24.074Z,60.79
2023-03-17T09:41:02.905Z,60.20
2023-03-17T09:44:06.003Z,58.87
2023-03-17T09:46:47.204Z,59.60
2023-03-17T09:49:19.829Z,60.57
2023-03-17T09:51:46.592Z,59.98
2023-03-17T09:54:18.789Z,60.44
2023-03-17T09:56:50.628Z,57.81
2023-03-17T09:59:37.339Z,55.94
2023-03-17T10:02:28.852Z,56.51
2023-03-17T10:04:56.417Z,56.33
2023-03-17T10:07:35.569Z,55.67
2023-03-17T10:10:04.996Z,53.99
2023-03-17T10:12:40.454Z,54.75
2023-03-17T10:15:25.048Z,55.09
2023-03-17T10:17:52.652Z,53.65
2023-03-17T10:20:32.487Z,53.95
2023-03-17T10:23:14.366Z,52.21
2023-03-17T10:25:40.808Z,51.69
2023-03-17T10:28:11.494Z,51.37
2023-03-17T10:30:38.251Z,50.12
2023-03-17T10:33:08.757Z,51.51
2023-03-17T10:35:38.528Z,52.57
2023-03-17T10:38:20.671Z,51.59
2023-03-17T10:40:55.773Z,52.14
2023-03-17T10:43:26.995Z,51.83
2023-03-17T10:46:01.947Z,51.34
2023-03-17T10:48:30.009Z,50.54
2023-03-17T10:51:00.270Z,49.76
2023-03-17T10:53:27.433Z,48.53
2023-03-17T10:55:56.889Z,48.22
2023-03-17T10:58:54.271Z,48.19
2023-03-17T11:01:23.094Z,46.46
2023-03-17T11:03:49.070Z,47.29
2023-03-17T11:06:18.379Z,46.64
2023-03-17T11:08:54.928Z,47.98
2023-03-17T11:11:33.907Z,48.31
2023-03-17T11:14:14.729Z,47.75
2023-03-17T11:17:03.097Z,47.32
2023-03-17T11:19:38.112Z,47.60
2023-03-17T11:22:37.025Z,46.81
2023-03-17T11:25:20.257Z,47.79
2023-03-17T11:28:06.269Z,47.52
2023-03-17T11:30:37.328Z,46.88
2023-03-17T11:33:15.263Z,47.51
2023-03-17T11:35:57.909Z,45.15
2023-03-17T11:38:32.291Z,46.33
2023-03-17T11:41:10.792Z,47.14
2023-03-17T11:44:13.479Z,46.24
2023-03-17T11:46:54.620Z,47.16
2023-03-17T11:49:35.314Z,46.88
2023-03-17T11:52:27.843Z,47.39
2023-03-17T11:55:21.718Z,49.08
2023-03-17T11:58:04.875Z,49.65
2023-03-17T12:00:34.636Z,49.75
2023-03-17T12:03:03.478Z,50.52
2023-03-17T12:05:29.911Z,51.10
2023-03-17T12:08:08.238Z,50.70
2023-03-17T12:10:51.666Z,50.73
2023-03-17T12:13:28.785Z,51.94
2023-03-17T12:16:08.002Z,52.16
2023-03-17T12:18:35.807Z,51.92
2023-03-17T12:21:11.255Z,51.59
2023-03-17T12:23:39.730Z,52.25
2023-03-17T12:26:14.051Z,51.80
2023-03-17T12:28:52.517Z,51.36
2023-03-17T12:31:27.391Z,50.08
2023-03-17T12:34:19.692Z,49.79
2023-03-17T12:36:48.004Z,50.40
2023-03-17T12:39:32.270Z,49.30
2023-03-17T12:42:26.450Z,49.55
2023-03-17T12:45:21.622Z,50.33
2023-03-17T12:48:09.198Z,50.26
2023-03-17T12:51:05.927Z,51.20
2023-03-17T12:53:33.736Z,51.13
2023-03-17T12:56:18.344Z,50.92
2023-03-17T12:58:49.069Z,51.39
2023-03-17T13:01:31.669Z,51.55
2023-03-17T13:04:13.049Z,51.38
2023-03-17T13:06:47.522Z,51.30
2023-03-17T13:09:56.674Z,50.57
2023-03-17T13:12:54.217Z,50.28
2023-03-17T13:15:27.363Z,49.37
2023-03-17T13:18:11.552Z,50.54
2023-03-17T13:20:42.501Z,51.35
2023-03-17T13:23:13.739Z,52.52
2023-03-17T13:25:44.735Z,52.78
2023-03-17T13:28:13.158Z,52.22
2023-03-17T13:30:39.151Z,51.10
2023-03-17T13:33:08.775Z,49.89
2023-03-17T13:36:05.252Z,50.10
2023-03-17T13:38:42.984Z,49.70
2023-03-17T13:41:33.761Z,49.51
2023-03-17T13:44:28.728Z,49.75
2023-03-17T13:46:54.612Z,49.83
2023-03-17T13:49:26.857Z,50.45
2023-03-17T13:52:13.175Z,49.79
2023-03-17T13:54:48.950Z,49.35
2023-03-17T13:57:27.391Z,49.62
2023-03-17T14:00:08.649Z,49.43
2023-03-17T14:02:38.566Z,50.07
2023-03-17T14:05:17.569Z,50.27
2023-03-17T14:07:49.667Z,51.16
2023-03-17T14:10:18.970Z,50.22
2023-03-17T14:13:22.635Z,49.94
2023-03-17T14:16:06.180Z,50.01
2023-03-17T14:18:37.616Z,49.62
2023-03-17T14:21:08.857Z,50.65
2023-03-17T14:23:36.601Z,49.66
2023-03-17T14:26:04.402Z,49.26
2023-03-17T14:28:32.864Z,49.82
2023-03-17T14:31:01.843Z,49.01
2023-03-17T14:33:30.002Z,50.47
2023-03-17T14:36:01.195Z,50.88
2023-03-17T14:38:32.468Z,50.09
2023-03-17T14:41:05.875Z,51.17
2023-03-17T14:43:33.807Z,51.03
2023-03-17T14:46:03.197Z,51.21
2023-03-17T14:48:35.001Z,51.30
2023-03-17T14:51:22.533Z,52.44
2023-03-17T14:53:51.682Z,52.84
2023-03-17T14:56:26.643Z,52.96
2023-03-17T14:58:52.759Z,53.58
2023-03-17T15:01:38.946Z,53.06
2023-03-17T15:04:13.060Z,54.04
2023-03-17T15:06:53.952Z,54.50
2023-03-17T15:09:56.904Z,54.41
2023-03-17T15:35:44.263Z,59.55
2023-03-17T15:38:10.754Z,61.11
2023-03-17T15:40:36.906Z,59.65
2023-03-17T15:43:03.149Z,59.46
2023-03-17T15:45:28.947Z,59.44
2023-03-17T15:47:55.046Z,60.67
2023-03-17T15:50:25.358Z,59.61
2023-03-17T15:53:00.302Z,59.79
2023-03-17T15:55:29.131Z,60.65
2023-03-17T15:57:56.029Z,60.98
2023-03-17T16:00:23.698Z,61.01
2023-03-17T16:02:54.904Z,61.11
2023-03-17T16:05:23.778Z,60.90
2023-03-17T16:07:49.760Z,62.39
2023-03-17T16:10:19.043Z,63.18
2023-03-17T16:12:45.614Z,62.73
2023-03-17T16:15:23.129Z,63.89
2023-03-17T16:17:53.071Z,64.22
2023-03-17T16:20:39.551Z,64.14
2023-03-17T16:23:18.122Z,64.05
2023-03-17T16:25:45.313Z,63.17
2023-03-17T16:28:18.235Z,64.34
2023-03-17T16:30:45.961Z,64.00
2023-03-17T16:33:20.009Z,63.93
2023-03-17T16:35:49.697Z,64.00
2023-03-17T16:38:18.249Z,63.88
2023-03-17T16:40:50.351Z,64.66
2023-03-17T16:43:26.343Z,65.75
2023-03-17T16:45:57.787Z,67.42
2023-03-17T16:48:24.766Z,66.84
2023-03-17T16:50:50.900Z,66.63
2023-03-17T16:53:17.240Z,66.20
2023-03-17T16:55:43.968Z,66.66
2023-03-17T16:58:18.975Z,66.72
2023-03-17T17:00:46.543Z,65.15
2023-03-17T17:03:13.552Z,65.29
2023-03-17T17:05:40.115Z,65.50
2023-03-17T17:08:06.744Z,66.37
2023-03-17T17:10:34.077Z,65.89
2023-03-17T17:13:01.216Z,65.87
2023-03-17T17:15:28.939Z,66.14
2023-03-17T17:18:00.367Z,68.06
2023-03-17T17:20:34.489Z,67.42
2023-03-17T17:23:01.621Z,67.91
2023-03-17T17:25:28.775Z,69.04
2023-03-17T17:27:55.655Z,68.97
2023-03-17T17:30:27.432Z,69.12
2023-03-17T17:32:54.926Z,68.98
2023-03-17T17:35:20.925Z,68.99
2023-03-17T17:37:46.717Z,69.93
2023-03-17T17:40:16.708Z,69.17
2023-03-17T17:42:45.599Z,69.47
2023-03-17T17:45:13.159Z,70.41
2023-03-17T17:47:38.946Z,71.50
2023-03-17T17:50:06.264Z,71.06
2023-03-17T17:52:32.137Z,69.48
2023-03-17T17:54:59.040Z,69.03
2023-03-17T17:57:24.997Z,69.71
2023-03-17T17:59:50.847Z,68.81
2023-03-17T18:02:16.714Z,68.62
2023-03-17T18:04:42.612Z,67.55
2023-03-17T18:07:08.842Z,66.94
2023-03-17T18:09:34.917Z,66.58
2023-03-17T18:12:00.786Z,66.25
2023-03-17T18:14:27.035Z,66.58
2023-03-17T18:16:53.032Z,66.70
2023-03-17T18:19:19.200Z,66.50
2023-03-17T18:21:46.401Z,66.44
2023-03-17T18:24:14.041Z,67.10
2023-03-17T18:26:40.939Z,67.51
2023-03-17T18:29:08.528Z,67.06
2023-03-17T18:31:40.921Z,66.48
2023-03-17T18:34:42.627Z,66.97
2023-03-17T18:37:13.301Z,66.03
2023-03-17T18:39:40.225Z,66.29
2023-03-17T18:42:06.628Z,66.82
2023-03-17T18:44:32.455Z,66.42
2023-03-17T18:46:58.366Z,66.92
2023-03-17T18:49:26.437Z,66.11
2023-03-17T18:51:53.689Z,66.83
2023-03-17T18:54:19.981Z,67.64
2023-03-17T18:56:45.811Z,68.22
2023-03-17T18:59:11.638Z,68.04
2023-03-17T19:01:37.631Z,68.55
2023-03-17T19:04:04.974Z,68.07
2023-03-17T19:06:31.336Z,69.48
2023-03-17T19:08:57.341Z,69.58
2023-03-17T19:11:23.812Z,72.17
2023-03-17T19:13:50.727Z,75.29
2023-03-17T19:16:18.098Z,75.49
2023-03-17T19:18:44.840Z,76.19
2023-03-17T19:21:11.547Z,76.40
2023-03-17T19:23:38.379Z,74.92
2023-03-17T19:26:05.464Z,75.62
2023-03-17T19:28:31.726Z,75.68
2023-03-17T19:30:58.076Z,75.40
2023-03-17T19:33:23.986Z,74.95
2023-03-17T19:35:54.088Z,74.80
2023-03-17T19:38:19.958Z,74.95
2023-03-17T19:40:45.766Z,74.76
2023-03-17T19:43:11.632Z,74.41
2023-03-17T19:45:37.470Z,75.17
2023-03-17T19:48:03.580Z,74.50
2023-03-17T19:50:31.004Z,74.34
2023-03-17T19:52:56.917Z,75.92
2023-03-17T19:55:23.877Z,76.19
2023-03-17T19:57:50.882Z,76.69
2023-03-17T20:00:17.694Z,76.42
2023-03-17T20:02:44.041Z,76.59
2023-03-17T20:05:10.524Z,76.91
2023-03-17T20:07:36.659Z,76.58
2023-03-17T20:10:03.674Z,77.76
2023-03-17T20:12:31.931Z,76.91
2023-03-17T20:14:59.692Z,78.02
2023-03-17T20:17:26.060Z,78.27
2023-03-17T20:19:52.306Z,79.22
2023-03-17T20:22:19.032Z,80.04
2023-03-17T20:24:45.054Z,80.70
2023-03-17T20:27:14.514Z,80.99
2023-03-17T20:29:42.238Z,80.41
2023-03-17T20:32:14.058Z,81.21
2023-03-17T20:34:42.491Z,80.72
2023-03-17T20:37:09.751Z,80.49
2023-03-17T20:39:36.559Z,81.06
2023-03-17T20:42:07.502Z,81.26
2023-03-17T20:44:33.346Z,82.59
2023-03-17T20:46:59.228Z,80.92
2023-03-17T20:49:25.128Z,81.94
2023-03-17T20:51:51.005Z,81.73
2023-03-17T20:54:17.392Z,81.33
2023-03-17T20:56:44.812Z,81.39
2023-03-17T20:59:12.692Z,81.79
2023-03-17T21:01:39.593Z,81.91
2023-03-17T21:04:08.217Z,82.24
2023-03-17T21:06:35.615Z,82.26
2023-03-17T21:09:03.974Z,82.57
2023-03-17T21:11:30.546Z,83.27
2023-03-17T21:13:56.519Z,84.53
2023-03-17T21:16:27.367Z,84.92
2023-03-17T21:18:53.917Z,84.71
2023-03-17T21:21:21.037Z,85.72
2023-03-17T21:23:47.102Z,85.78
2023-03-17T21:26:14.077Z,86.60
2023-03-17T21:28:41.716Z,87.50
2023-03-17T21:31:08.738Z,87.35
2023-03-17T21:33:34.801Z,88.04
2023-03-17T21:36:01.174Z,88.90
2023-03-17T21:38:27.722Z,90.08
2023-03-17T21:40:57.254Z,90.61
2023-03-17T21:43:23.894Z,92.05
2023-03-17T21:45:50.800Z,91.92
2023-03-17T21:48:16.902Z,92.86
2023-03-17T21:50:43.577Z,93.86
2023-03-17T21:53:13.244Z,95.03
2023-03-17T21:55:39.394Z,96.48
2023-03-17T21:58:05.229Z,96.93
2023-03-17T22:00:42.724Z,98.92
2023-03-17T22:03:10.891Z,100.00
2023-03-17T22:05:36.783Z,100.00
2023-03-17T22:08:02.572Z,100.00
2023-03-17T22:10:28.341Z,100.00
2023-03-17T22:12:54.140Z,100.00
2023-03-17T22:15:20.599Z,100.00
2023-03-17T22:17:46.421Z,100.00
2023-03-17T22:20:12.465Z,100.00
2023-03-17T22:22:38.333Z,100.00
2023-03-17T22:25:05.547Z,100.00
2023-03-17T22:27:32.837Z,100.00
2023-03-17T22:29:58.683Z,100.00
2023-03-17T22:32:24.762Z,100.00
2023-03-17T22:34:50.587Z,100.00
2023-03-17T22:37:16.624Z,100.00
2023-03-17T22:39:42.505Z,100.00
2023-03-17T22:42:08.429Z,100.00
2023-03-17T22:44:34.303Z,100.00
2023-03-17T22:47:00.212Z,100.00
2023-03-17T22:49:26.189Z,100.00
2023-03-17T22:51:52.123Z,100.00
2023-03-17T22:54:18.029Z,100.00
2023-03-17T22:56:44.217Z,100.00
2023-03-17T22:59:10.699Z,100.00
2023-03-17T23:01:36.621Z,100.00
2023-03-17T23:04:02.515Z,100.00
2023-03-17T23:06:28.398Z,100.00
2023-03-17T23:08:54.308Z,100.00
2023-03-17T23:11:23.553Z,100.00
2023-03-17T23:13:50.663Z,100.00
2023-03-17T23:16:16.812Z,100.00
2023-03-17T23:18:46.526Z,100.00
2023-03-17T23:21:21.970Z,100.00
2023-03-17T23:23:48.685Z,100.00
2023-03-17T23:26:15.462Z,100.00
2023-03-17T23:28:43.583Z,100.00
2023-03-17T23:31:10.277Z,100.00
2023-03-17T23:33:38.414Z,100.00
2023-03-17T23:36:04.628Z,100.00
2023-03-17T23:38:30.500Z,100.00
2023-03-17T23:40:56.724Z,100.00
2023-03-17T23:43:22.956Z,100.00
2023-03-17T23:45:54.433Z,100.00
2023-03-17T23:48:21.408Z,100.00
2023-03-17T23:50:52.086Z,100.00
2023-03-17T23:53:18.865Z,100.00
2023-03-17T23:55:45.030Z,100.00
2023-03-17T23:58:11.659Z,100.00
